Time;durP1;ratioP1;P1;durP2;ratioP2;P2;SDS_P1;SDS_P2;PMS_P1;PMS_P2;Temp;Humidity;BMP_temperature;BMP_pressure;BME280_temperature;BME280_humidity;BME280_pressure;Samples;Min_cycle;Max_cycle;Signal;HPM_P1;HPM_P2
2022/06/19 00:02:05;;;;;;;15.75;3.20;;;;;;;14.31;97.16;100920.09;4819470;29;20050;-88
2022/06/19 00:04:31;;;;;;;20.20;3.13;;;;;;;14.22;97.92;100913.28;4807955;29;20077;-89
2022/06/19 00:06:57;;;;;;;16.77;3.05;;;;;;;14.34;96.80;100921.53;4818101;29;20035;-88
2022/06/19 00:09:24;;;;;;;15.77;2.45;;;;;;;14.19;95.57;100902.91;4809043;29;20433;-88
2022/06/19 00:11:49;;;;;;;23.38;3.58;;;;;;;14.18;96.28;100914.78;4832553;29;20433;-90
2022/06/19 00:14:15;;;;;;;12.52;2.20;;;;;;;14.22;97.00;100928.69;4804737;29;20034;-88
2022/06/19 00:16:40;;;;;;;16.20;2.35;;;;;;;14.23;94.59;100943.88;4802464;29;20043;-89
2022/06/19 00:19:06;;;;;;;15.85;2.72;;;;;;;14.08;95.56;100934.22;4795990;29;20109;-88
2022/06/19 00:21:32;;;;;;;15.20;2.85;;;;;;;14.35;94.90;100971.91;4811399;29;20094;-88
2022/06/19 00:23:57;;;;;;;13.35;2.45;;;;;;;14.31;95.60;100965.28;4816606;29;20054;-88
2022/06/19 00:26:23;;;;;;;18.17;2.35;;;;;;;14.35;96.08;100952.97;4805124;29;20042;-88
2022/06/19 00:28:48;;;;;;;16.33;2.97;;;;;;;14.26;96.20;100932.63;4821156;29;20130;-88
2022/06/19 00:31:15;;;;;;;15.45;2.80;;;;;;;14.38;96.00;100947.09;4804131;29;20130;-87
2022/06/19 00:33:40;;;;;;;10.80;2.22;;;;;;;14.26;94.47;100924.50;4804349;29;20043;-88
2022/06/19 00:36:06;;;;;;;19.65;3.22;;;;;;;14.18;93.80;100924.78;4805448;29;20374;-88
2022/06/19 00:38:32;;;;;;;22.08;3.47;;;;;;;14.24;93.75;100940.97;4819714;29;20026;-89
2022/06/19 00:41:00;;;;;;;12.98;2.47;;;;;;;14.34;94.54;100949.44;4821085;29;20041;-88
2022/06/19 00:43:27;;;;;;;13.82;2.70;;;;;;;14.37;94.47;100939.19;4819330;29;20026;-88
2022/06/19 00:45:53;;;;;;;18.25;2.92;;;;;;;14.34;94.14;100960.25;4847468;29;20129;-89
2022/06/19 00:48:31;;;;;;;16.17;2.20;;;;;;;14.34;94.38;100962.97;4828311;29;20053;-90
2022/06/19 00:51:00;;;;;;;13.95;2.65;;;;;;;14.26;94.91;100929.91;4844083;29;20037;-90
2022/06/19 00:53:55;;;;;;;13.60;2.60;;;;;;;14.29;97.32;100954.66;4842418;29;20033;-89
2022/06/19 00:56:20;;;;;;;18.23;2.67;;;;;;;14.27;96.94;100945.09;4826887;29;20053;-90
2022/06/19 00:58:49;;;;;;;14.00;2.47;;;;;;;14.25;96.61;100936.38;4809913;29;20102;-89
2022/06/19 01:01:19;;;;;;;16.27;2.72;;;;;;;14.34;96.50;100944.00;4828608;29;20042;-89
2022/06/19 01:03:55;;;;;;;17.30;2.45;;;;;;;14.31;96.64;100949.88;4843725;29;20018;-90
2022/06/19 01:06:22;;;;;;;18.52;2.45;;;;;;;14.40;96.52;100971.25;4849147;29;20030;-90
2022/06/19 01:08:48;;;;;;;16.05;2.75;;;;;;;14.40;96.32;100966.66;4858282;29;20022;-90
2022/06/19 01:11:15;;;;;;;15.35;2.25;;;;;;;14.39;97.06;100956.88;4811371;29;20087;-89
2022/06/19 01:13:41;;;;;;;15.50;3.22;;;;;;;14.41;96.57;100960.19;4811917;29;20050;-89
2022/06/19 01:16:07;;;;;;;14.23;2.67;;;;;;;14.04;94.99;100897.00;4841305;29;20054;-88
2022/06/19 01:18:35;;;;;;;16.10;2.92;;;;;;;14.40;95.87;100942.28;4842501;29;20060;-90
2022/06/19 01:21:15;;;;;;;16.17;3.05;;;;;;;14.43;95.54;100951.84;4827940;29;20036;-89
2022/06/19 01:24:03;;;;;;;20.85;3.42;;;;;;;14.24;95.65;100932.84;4859042;29;20040;-89
2022/06/19 01:26:34;;;;;;;17.67;3.05;;;;;;;14.36;95.94;100943.78;4845608;29;20037;-89
2022/06/19 01:29:01;;;;;;;22.58;3.22;;;;;;;14.36;96.26;100937.53;4842104;29;20030;-89
2022/06/19 01:31:33;;;;;;;16.67;3.10;;;;;;;14.37;98.00;100931.06;4841023;29;20071;-88
2022/06/19 01:34:26;;;;;;;13.25;2.60;;;;;;;14.37;95.95;100934.63;4840299;29;20054;-90
2022/06/19 01:37:10;;;;;;;8.32;1.83;;;;;;;14.33;97.01;100941.50;4827474;29;20484;-89
2022/06/19 01:40:02;;;;;;;9.17;2.27;;;;;;;14.35;97.53;100925.88;4830167;29;20030;-90
2022/06/19 01:42:30;;;;;;;14.80;2.70;;;;;;;14.25;99.02;100904.72;4844931;29;20266;-90
2022/06/19 01:44:56;;;;;;;11.07;2.58;;;;;;;14.30;100.00;100906.75;4845354;29;20474;-90
2022/06/19 01:47:27;;;;;;;15.85;2.80;;;;;;;14.37;100.00;100899.44;4823178;29;20049;-92
2022/06/19 01:49:55;;;;;;;16.80;2.97;;;;;;;14.22;100.00;100875.41;4820361;29;20030;-88
2022/06/19 01:52:23;;;;;;;16.50;2.95;;;;;;;14.38;100.00;100879.44;4818829;29;20031;-87
2022/06/19 01:55:09;;;;;;;13.68;2.80;;;;;;;14.44;100.00;100889.38;4850609;29;20025;-89
2022/06/19 01:57:39;;;;;;;19.13;2.70;;;;;;;14.47;100.00;100883.50;4852256;29;20480;-88
2022/06/19 02:00:09;;;;;;;14.25;2.67;;;;;;;14.48;100.00;100879.75;4822608;29;20365;-87
2022/06/19 02:02:36;;;;;;;16.60;2.63;;;;;;;14.47;100.00;100877.25;4834507;29;20042;-89
2022/06/19 02:05:01;;;;;;;17.52;3.20;;;;;;;14.37;100.00;100856.13;4836340;29;20067;-88
2022/06/19 02:07:28;;;;;;;18.88;2.70;;;;;;;14.46;100.00;100879.13;4836398;29;20042;-87
2022/06/19 02:09:54;;;;;;;14.55;3.17;;;;;;;14.13;100.00;100816.38;4835545;29;20632;-89
2022/06/19 02:12:22;;;;;;;15.95;3.80;;;;;;;13.87;100.00;100772.25;4836245;29;20030;-88
2022/06/19 02:14:47;;;;;;;16.02;2.20;;;;;;;14.41;100.00;100860.03;4848558;29;20025;-88
2022/06/19 02:17:30;;;;;;;20.75;3.70;;;;;;;14.39;100.00;100845.88;4809960;29;20117;-89
2022/06/19 02:19:56;;;;;;;12.80;2.25;;;;;;;14.42;100.00;100845.44;4829825;29;20033;-89
2022/06/19 02:22:21;;;;;;;18.95;3.35;;;;;;;14.32;100.00;100839.72;4857630;29;20361;-88
2022/06/19 02:24:47;;;;;;;20.00;3.05;;;;;;;13.82;100.00;100755.88;4811932;29;20031;-87
2022/06/19 02:27:12;;;;;;;17.40;3.13;;;;;;;14.40;100.00;100835.88;4818872;29;20648;-90
2022/06/19 02:29:40;;;;;;;16.30;3.03;;;;;;;14.37;100.00;100848.00;4811314;29;20034;-90
2022/06/19 02:32:18;;;;;;;16.40;2.72;;;;;;;14.33;100.00;100847.59;4826319;29;20038;-89
2022/06/19 02:34:44;;;;;;;16.20;2.90;;;;;;;14.05;100.00;100793.94;4821890;29;20042;-89
2022/06/19 02:37:17;;;;;;;17.15;2.88;;;;;;;14.28;100.00;100808.72;4834275;29;20054;-89
2022/06/19 02:39:58;;;;;;;19.45;3.40;;;;;;;14.28;100.00;100796.03;4858055;29;20025;-89
2022/06/19 02:42:43;;;;;;;18.92;3.15;;;;;;;14.29;100.00;100802.25;4842222;29;20034;-89
2022/06/19 02:45:23;;;;;;;;;;;;;;;14.24;100.00;100829.19;4842129;29;20057;-89
2022/06/19 02:47:52;;;;;;;15.55;2.50;;;;;;;14.13;100.00;100800.13;4842458;29;19917;-89
2022/06/19 02:50:25;;;;;;;16.98;2.42;;;;;;;14.18;100.00;100808.41;4840564;29;20030;-89
2022/06/19 02:52:52;;;;;;;19.38;3.25;;;;;;;14.01;100.00;100802.75;4841855;29;20049;-89
2022/06/19 02:55:18;;;;;;;22.33;2.90;;;;;;;14.24;100.00;100823.78;4828161;29;20090;-89
2022/06/19 02:57:44;;;;;;;12.90;2.35;;;;;;;14.14;100.00;100821.56;4827188;29;20034;-89
2022/06/19 03:00:19;;;;;;;16.15;3.08;;;;;;;14.20;100.00;100842.31;4829371;29;20612;-89
2022/06/19 03:02:50;;;;;;;15.20;2.90;;;;;;;14.17;98.65;100852.75;4844807;29;20034;-89
2022/06/19 03:05:23;;;;;;;14.88;2.50;;;;;;;14.18;98.86;100840.91;4845249;29;20041;-89
2022/06/19 03:07:48;;;;;;;13.07;2.50;;;;;;;14.03;94.27;100828.50;4839385;29;20536;-88
2022/06/19 03:10:14;;;;;;;13.98;1.63;;;;;;;14.17;93.73;100848.19;4844964;29;20047;-90
2022/06/19 03:12:40;;;;;;;11.02;2.33;;;;;;;14.21;94.09;100856.69;4828355;29;20019;-89
2022/06/19 03:15:06;;;;;;;8.35;1.70;;;;;;;14.20;93.82;100850.41;4827606;29;20042;-89
2022/06/19 03:17:32;;;;;;;15.43;2.75;;;;;;;14.17;94.47;100845.47;4831388;29;20026;-89
2022/06/19 03:19:58;;;;;;;12.52;1.90;;;;;;;14.20;90.78;100853.13;4832542;29;20034;-89
2022/06/19 03:22:23;;;;;;;9.50;2.17;;;;;;;14.18;92.60;100852.53;4846250;29;20042;-90
2022/06/19 03:24:49;;;;;;;8.10;1.75;;;;;;;14.05;91.05;100841.84;4855179;29;20038;-89
2022/06/19 03:27:14;;;;;;;11.27;2.08;;;;;;;14.20;92.22;100852.31;4842156;29;20041;-89
2022/06/19 03:29:40;;;;;;;11.57;1.95;;;;;;;14.18;94.37;100840.91;4812604;29;20038;-90
2022/06/19 03:32:09;;;;;;;13.93;2.30;;;;;;;14.27;94.36;100861.19;4835106;29;20043;-89
2022/06/19 03:34:34;;;;;;;10.48;2.28;;;;;;;14.19;93.20;100859.59;4823027;29;20067;-90
2022/06/19 03:36:59;;;;;;;12.82;2.45;;;;;;;14.20;94.26;100858.53;4829793;29;20054;-90
2022/06/19 03:39:25;;;;;;;9.45;2.33;;;;;;;14.24;94.35;100861.66;4819783;29;20041;-89
2022/06/19 03:41:50;;;;;;;12.45;2.72;;;;;;;14.27;93.97;100858.47;4803086;29;20035;-88
2022/06/19 03:44:15;;;;;;;17.70;2.20;;;;;;;14.25;91.88;100855.19;4822247;29;20034;-89
2022/06/19 03:46:41;;;;;;;14.55;2.25;;;;;;;14.29;93.12;100849.09;4822464;29;20046;-87
2022/06/19 03:49:09;;;;;;;8.65;1.80;;;;;;;14.34;93.35;100851.16;4823947;29;20066;-88
2022/06/19 03:51:34;;;;;;;12.68;2.20;;;;;;;14.33;93.99;100838.66;4823953;29;20045;-89
2022/06/19 03:53:59;;;;;;;11.82;2.10;;;;;;;14.29;96.43;100840.16;4823937;29;20034;-88
2022/06/19 03:56:31;;;;;;;12.43;2.25;;;;;;;14.42;96.50;100850.84;4806468;29;20038;-87
2022/06/19 03:58:57;;;;;;;12.32;2.28;;;;;;;14.44;95.82;100831.69;4818733;29;20034;-89
2022/06/19 04:01:33;;;;;;;14.55;2.80;;;;;;;14.51;94.90;100840.59;4789606;29;20053;-88
2022/06/19 04:04:00;;;;;;;14.90;2.40;;;;;;;14.32;95.04;100815.34;4819253;29;20104;-88
2022/06/19 04:06:29;;;;;;;17.60;2.30;;;;;;;14.50;94.55;100844.31;4834734;29;20050;-88
2022/06/19 04:08:55;;;;;;;11.27;2.05;;;;;;;14.64;94.39;100840.47;4833481;29;20109;-88
2022/06/19 04:11:22;;;;;;;13.40;1.90;;;;;;;14.58;93.64;100830.53;4823784;29;20048;-89
2022/06/19 04:13:49;;;;;;;10.65;1.73;;;;;;;14.59;92.77;100831.34;4843194;29;20030;-89
2022/06/19 04:16:19;;;;;;;13.50;2.53;;;;;;;14.71;91.07;100834.97;4845893;29;20026;-89
2022/06/19 04:18:45;;;;;;;9.77;2.10;;;;;;;14.66;90.15;100835.63;4827156;29;20034;-89
2022/06/19 04:21:13;;;;;;;8.80;1.90;;;;;;;14.56;88.50;100821.78;4841965;29;20075;-89
2022/06/19 04:23:38;;;;;;;11.98;2.13;;;;;;;14.56;89.24;100811.78;4841287;29;20196;-90
2022/06/19 04:26:07;;;;;;;13.82;3.08;;;;;;;14.68;92.08;100825.41;4821771;29;20026;-88
2022/06/19 04:28:33;;;;;;;12.35;1.98;;;;;;;14.73;92.22;100832.84;4826174;29;20108;-88
2022/06/19 04:30:58;;;;;;;10.18;1.92;;;;;;;14.74;91.64;100820.97;4825769;29;20041;-89
2022/06/19 04:33:23;;;;;;;11.98;1.98;;;;;;;14.77;90.54;100818.66;4858502;29;20038;-88
2022/06/19 04:35:49;;;;;;;10.95;2.00;;;;;;;14.49;89.86;100778.50;4843254;29;20041;-89
2022/06/19 04:38:15;;;;;;;11.95;2.40;;;;;;;14.66;89.88;100796.88;4825732;29;20026;-88
2022/06/19 04:40:41;;;;;;;9.00;1.70;;;;;;;14.60;90.79;100789.66;4844826;29;20041;-87
2022/06/19 04:43:06;;;;;;;11.43;2.38;;;;;;;14.69;92.39;100799.16;4841739;29;20034;-89
2022/06/19 04:45:33;;;;;;;17.27;2.20;;;;;;;14.73;93.40;100805.75;4826864;29;20046;-89
2022/06/19 04:47:59;;;;;;;13.18;2.00;;;;;;;14.71;93.24;100797.06;4827093;29;20101;-89
2022/06/19 04:50:24;;;;;;;15.80;2.38;;;;;;;14.75;93.25;100795.53;4844723;29;20338;-89
2022/06/19 04:52:49;;;;;;;14.23;2.47;;;;;;;14.79;93.62;100789.44;4858486;29;20049;-89
2022/06/19 04:55:16;;;;;;;11.32;2.30;;;;;;;14.83;93.24;100789.78;4822479;29;20353;-87
2022/06/19 04:57:42;;;;;;;16.35;2.80;;;;;;;14.88;92.95;100798.09;4830273;29;20085;-88
2022/06/19 05:00:11;;;;;;;12.20;1.95;;;;;;;14.77;92.82;100775.31;4822654;29;20040;-88
2022/06/19 05:02:37;;;;;;;15.15;2.40;;;;;;;14.86;93.41;100789.34;4834319;29;20366;-87
2022/06/19 05:05:05;;;;;;;16.70;2.55;;;;;;;14.91;93.46;100785.97;4853584;29;20120;-87
2022/06/19 05:07:31;;;;;;;10.10;2.10;;;;;;;14.87;92.84;100765.81;4838291;29;20097;-87
2022/06/19 05:09:56;;;;;;;14.43;2.42;;;;;;;14.94;92.45;100777.38;4839467;29;20504;-89
2022/06/19 05:12:21;;;;;;;11.20;2.22;;;;;;;14.97;91.84;100776.94;4823871;29;20060;-89
2022/06/19 05:14:47;;;;;;;8.30;1.98;;;;;;;14.90;91.27;100778.88;4836128;29;20044;-89
2022/06/19 05:17:12;;;;;;;10.95;2.00;;;;;;;14.75;91.24;100752.19;4824534;29;20094;-88
2022/06/19 05:19:40;;;;;;;15.48;2.58;;;;;;;15.04;91.58;100793.94;4823245;29;20038;-89
2022/06/19 05:22:06;;;;;;;7.93;1.67;;;;;;;14.92;90.55;100782.19;4825437;29;20042;-89
2022/06/19 05:24:31;;;;;;;13.27;2.15;;;;;;;14.78;89.52;100768.00;4841826;29;20034;-89
2022/06/19 05:26:57;;;;;;;15.35;2.78;;;;;;;15.08;91.30;100808.66;4793816;29;20039;-89
2022/06/19 05:29:22;;;;;;;15.25;2.65;;;;;;;15.06;90.78;100799.94;4809507;29;20054;-88
2022/06/19 05:31:47;;;;;;;15.52;2.40;;;;;;;15.12;89.84;100798.19;4822757;29;20148;-87
2022/06/19 05:34:13;;;;;;;11.88;1.95;;;;;;;15.15;88.92;100811.28;4821143;29;20061;-87
2022/06/19 05:36:38;;;;;;;16.83;2.92;;;;;;;15.13;89.19;100813.38;4821000;29;20038;-87
2022/06/19 05:39:04;;;;;;;14.63;2.65;;;;;;;15.18;90.06;100802.69;4821630;29;20034;-86
2022/06/19 05:41:30;;;;;;;11.05;2.25;;;;;;;15.19;88.35;100807.88;4806650;29;20041;-86
2022/06/19 05:43:56;;;;;;;14.02;2.33;;;;;;;15.18;87.13;100797.28;4819991;29;20034;-86
2022/06/19 05:46:22;;;;;;;11.27;1.58;;;;;;;15.24;87.70;100790.94;4820730;29;20026;-87
2022/06/19 05:48:48;;;;;;;13.20;2.35;;;;;;;15.13;88.38;100783.56;4828609;29;20027;-86
2022/06/19 05:51:20;;;;;;;16.63;1.92;;;;;;;15.28;88.34;100784.00;4835855;29;20113;-86
2022/06/19 05:53:52;;;;;;;13.40;2.00;;;;;;;15.47;89.00;100818.13;4837580;29;20035;-87
2022/06/19 05:56:18;;;;;;;10.63;2.13;;;;;;;15.53;87.87;100816.38;4818957;29;20034;-88
2022/06/19 05:58:44;;;;;;;10.55;2.00;;;;;;;15.42;88.80;100822.59;4818420;29;20484;-87
2022/06/19 06:01:11;;;;;;;9.88;2.00;;;;;;;15.45;88.55;100841.94;4834387;29;20034;-86
2022/06/19 06:03:37;;;;;;;12.23;2.33;;;;;;;15.32;87.31;100808.75;4835271;29;20037;-87
2022/06/19 06:06:05;;;;;;;13.82;2.25;;;;;;;15.51;86.56;100841.00;4803529;29;20030;-86
2022/06/19 06:08:34;;;;;;;10.93;2.30;;;;;;;15.33;86.78;100804.97;4819410;29;20023;-88
2022/06/19 06:10:59;;;;;;;16.30;2.10;;;;;;;15.45;87.03;100833.78;4823654;29;20045;-87
2022/06/19 06:13:25;;;;;;;8.98;2.13;;;;;;;15.44;85.74;100817.78;4824333;29;20026;-88
2022/06/19 06:15:51;;;;;;;12.60;1.98;;;;;;;15.38;84.71;100803.25;4823955;29;20101;-87
2022/06/19 06:18:16;;;;;;;12.55;2.10;;;;;;;15.56;84.58;100832.16;4838408;29;20036;-87
2022/06/19 06:20:42;;;;;;;8.90;1.88;;;;;;;15.48;84.09;100808.94;4851069;29;20038;-86
2022/06/19 06:23:08;;;;;;;12.85;2.00;;;;;;;15.66;83.33;100824.34;4841035;29;20041;-86
2022/06/19 06:25:34;;;;;;;10.82;1.90;;;;;;;15.67;83.50;100822.47;4828122;29;20034;-87
2022/06/19 06:28:00;;;;;;;10.95;2.00;;;;;;;15.66;84.56;100818.94;4841432;29;20038;-86
2022/06/19 06:30:25;;;;;;;12.80;2.15;;;;;;;15.58;82.77;100819.22;4845978;29;20022;-85
2022/06/19 06:32:51;;;;;;;8.70;1.52;;;;;;;15.56;82.52;100823.22;4809753;29;20018;-82
2022/06/19 06:35:17;;;;;;;12.57;2.30;;;;;;;15.51;82.94;100823.91;4846337;29;20184;-85
2022/06/19 06:37:42;;;;;;;10.13;2.22;;;;;;;15.54;83.89;100823.47;4841205;29;20070;-85
2022/06/19 06:40:09;;;;;;;12.18;1.90;;;;;;;15.49;82.31;100817.88;4829320;29;20076;-87
2022/06/19 06:42:35;;;;;;;13.95;2.22;;;;;;;15.47;82.03;100823.56;4809806;29;20030;-87
2022/06/19 06:45:01;;;;;;;11.90;1.85;;;;;;;15.39;81.54;100812.19;4822924;29;20038;-83
2022/06/19 06:47:27;;;;;;;14.50;2.03;;;;;;;15.58;81.47;100837.38;4822117;29;20033;-85
2022/06/19 06:49:52;;;;;;;11.57;2.17;;;;;;;15.43;81.54;100808.81;4824107;29;20035;-86
2022/06/19 06:52:18;;;;;;;11.23;2.05;;;;;;;15.50;82.54;100798.69;4824635;29;20034;-86
2022/06/19 06:54:43;;;;;;;16.50;2.15;;;;;;;15.28;82.02;100755.00;4824357;29;20049;-84
2022/06/19 06:57:08;;;;;;;13.75;2.10;;;;;;;15.45;81.55;100776.84;4825735;29;20129;-88
2022/06/19 06:59:35;;;;;;;15.00;1.77;;;;;;;15.81;82.06;100839.34;4811208;29;20080;-90
2022/06/19 07:02:00;;;;;;;12.35;2.10;;;;;;;15.66;81.66;100827.06;4827387;29;20053;-87
2022/06/19 07:04:26;;;;;;;7.50;1.63;;;;;;;15.91;81.12;100821.44;4832811;29;20034;-90
2022/06/19 07:06:52;;;;;;;8.15;1.70;;;;;;;15.67;80.44;100774.47;4826382;29;20471;-82
2022/06/19 07:09:17;;;;;;;11.98;2.20;;;;;;;15.73;79.74;100800.66;4819529;29;20063;-82
2022/06/19 07:11:46;;;;;;;9.88;1.98;;;;;;;15.77;79.74;100830.84;4813727;29;20048;-90
2022/06/19 07:14:12;;;;;;;11.75;1.70;;;;;;;15.80;79.30;100826.88;4863104;29;20030;-90
2022/06/19 07:16:40;;;;;;;12.52;2.00;;;;;;;15.75;78.08;100819.41;4831833;29;20014;-89
2022/06/19 07:19:05;;;;;;;10.25;1.70;;;;;;;15.95;77.66;100829.94;4831114;29;20094;-90
2022/06/19 07:21:31;;;;;;;12.10;2.20;;;;;;;15.97;77.31;100822.41;4857201;29;20034;-86
2022/06/19 07:23:57;;;;;;;9.43;1.95;;;;;;;16.11;77.69;100825.72;4843807;29;20125;-88
2022/06/19 07:26:24;;;;;;;11.20;2.28;;;;;;;15.88;77.45;100794.75;4846761;29;20034;-89
2022/06/19 07:28:49;;;;;;;13.23;2.38;;;;;;;16.50;74.94;100824.16;4804879;29;20417;-81
2022/06/19 07:31:15;;;;;;;10.38;1.92;;;;;;;16.41;74.13;100820.97;4818498;29;20025;-83
2022/06/19 07:33:41;;;;;;;9.50;1.80;;;;;;;16.34;74.85;100817.56;4832693;29;20042;-82
2022/06/19 07:36:11;;;;;;;9.23;1.95;;;;;;;16.66;73.90;100818.00;4824033;29;20041;-83
2022/06/19 07:38:37;;;;;;;8.80;1.98;;;;;;;16.53;73.34;100780.22;4835188;29;20026;-81
2022/06/19 07:41:02;;;;;;;7.65;1.67;;;;;;;16.89;72.76;100827.22;4816656;29;20059;-82
2022/06/19 07:43:28;;;;;;;9.85;1.80;;;;;;;16.79;71.78;100829.72;4822708;29;20113;-83
2022/06/19 07:45:54;;;;;;;12.95;2.10;;;;;;;16.49;72.28;100813.53;4810612;29;20058;-84
2022/06/19 07:51:04;;;;;;;11.85;2.00;;;;;;;16.50;73.22;100837.75;4831951;29;20434;-81
2022/06/19 07:53:29;;;;;;;9.27;1.85;;;;;;;16.64;70.83;100814.69;4815520;29;20058;-82
2022/06/19 07:55:54;;;;;;;10.70;1.70;;;;;;;16.56;69.07;100820.50;4818084;29;20385;-83
2022/06/19 07:58:20;;;;;;;9.85;2.05;;;;;;;16.14;71.51;100811.66;4834875;29;20109;-83
2022/06/19 08:00:45;;;;;;;6.45;1.63;;;;;;;16.39;71.94;100828.56;4799338;29;20030;-83
2022/06/19 08:03:10;;;;;;;8.43;1.40;;;;;;;16.61;70.10;100815.16;4800935;29;20072;-81
2022/06/19 08:05:38;;;;;;;9.38;1.70;;;;;;;16.71;68.55;100811.84;4819654;29;20045;-83
2022/06/19 08:08:09;;;;;;;10.30;1.98;;;;;;;16.74;70.06;100822.22;4850721;29;20357;-84
2022/06/19 08:10:40;;;;;;;11.35;1.95;;;;;;;16.58;67.48;100834.66;4842516;29;20030;-82
2022/06/19 08:13:06;;;;;;;11.38;2.05;;;;;;;16.61;68.29;100839.63;4828750;29;20046;-82
2022/06/19 08:15:33;;;;;;;11.65;2.28;;;;;;;16.62;67.53;100832.28;4833485;29;20071;-81
2022/06/19 08:17:59;;;;;;;9.38;1.63;;;;;;;16.57;67.44;100843.06;4833210;29;20025;-81
2022/06/19 08:20:25;;;;;;;8.32;1.58;;;;;;;16.41;66.44;100823.69;4829892;29;20118;-81
2022/06/19 08:22:51;;;;;;;10.25;1.45;;;;;;;16.55;67.50;100829.69;4831160;29;20049;-81
2022/06/19 08:25:18;;;;;;;7.38;1.67;;;;;;;16.58;67.09;100817.53;4814417;29;20502;-80
2022/06/19 08:27:48;;;;;;;6.68;2.00;;;;;;;16.68;65.62;100815.84;4812451;29;20030;-82
2022/06/19 08:30:40;;;;;;;7.25;1.48;;;;;;;16.70;67.30;100821.06;4815968;29;20034;-82
2022/06/19 08:33:07;;;;;;;10.82;1.85;;;;;;;16.65;67.11;100805.50;4820972;29;20058;-82
2022/06/19 08:35:41;;;;;;;8.50;1.88;;;;;;;16.48;66.37;100790.97;4836365;29;20065;-82
2022/06/19 08:38:11;;;;;;;7.55;1.67;;;;;;;16.53;65.84;100810.13;4828468;29;20037;-81
2022/06/19 08:40:52;;;;;;;5.53;1.10;;;;;;;16.48;65.09;100814.59;4815621;29;20437;-81
2022/06/19 08:43:35;;;;;;;7.38;1.58;;;;;;;16.40;63.25;100834.81;4832322;29;20036;-80
2022/06/19 08:46:06;;;;;;;7.60;1.83;;;;;;;16.32;64.54;100833.25;4812766;29;20026;-81
2022/06/19 08:48:53;;;;;;;6.25;1.63;;;;;;;16.45;65.02;100845.78;4816289;29;20404;-81
2022/06/19 08:51:18;;;;;;;8.55;1.50;;;;;;;16.47;67.56;100838.22;4815664;29;20026;-81
2022/06/19 08:53:51;;;;;;;10.80;1.80;;;;;;;16.45;68.38;100824.03;4820284;29;20028;-82
2022/06/19 08:56:40;;;;;;;7.57;1.63;;;;;;;16.58;68.40;100833.84;4829497;29;20044;-81
2022/06/19 08:59:26;;;;;;;9.07;2.13;;;;;;;16.48;67.86;100842.59;4815988;29;20056;-81
2022/06/19 09:01:54;;;;;;;9.48;1.67;;;;;;;16.50;67.82;100821.44;4833755;29;20038;-80
2022/06/19 09:07:21;;;;;;;7.55;2.08;;;;;;;16.42;68.60;100825.38;4829145;29;20041;-81
2022/06/19 09:10:15;;;;;;;7.90;1.60;;;;;;;16.34;67.75;100833.84;4827490;29;20043;-81
2022/06/19 09:13:09;;;;;;;8.18;1.63;;;;;;;16.29;70.74;100828.31;4835303;29;20039;-81
2022/06/19 09:16:05;;;;;;;11.07;2.03;;;;;;;16.36;70.74;100839.88;4816627;29;20023;-81
2022/06/19 09:18:39;;;;;;;7.93;1.65;;;;;;;16.24;70.55;100828.19;4828223;29;20105;-80
2022/06/19 09:21:27;;;;;;;11.23;1.98;;;;;;;16.41;71.84;100840.00;4828494;29;20037;-80
2022/06/19 09:24:38;;;;;;;8.57;1.80;;;;;;;16.35;73.88;100842.81;4811872;29;20042;-80
2022/06/19 09:27:03;;;;;;;8.73;1.85;;;;;;;16.24;76.10;100835.50;4812851;29;20040;-81
2022/06/19 09:29:45;;;;;;;11.80;2.03;;;;;;;16.32;70.21;100846.81;4815980;29;20042;-80
2022/06/19 09:32:28;;;;;;;8.55;1.67;;;;;;;16.49;66.50;100849.69;4824711;29;20060;-82
2022/06/19 09:35:03;;;;;;;7.03;1.52;;;;;;;16.46;72.40;100863.75;4829278;29;20058;-80
2022/06/19 09:37:43;;;;;;;7.10;1.80;;;;;;;16.38;71.22;100859.47;4813778;29;20022;-80
2022/06/19 09:40:26;;;;;;;13.50;2.58;;;;;;;16.43;67.47;100851.44;4812487;29;20109;-81
2022/06/19 09:42:59;;;;;;;8.27;2.00;;;;;;;16.48;69.60;100834.44;4827360;29;20453;-81
2022/06/19 09:45:29;;;;;;;8.65;1.92;;;;;;;16.84;70.53;100855.09;4842613;29;20030;-82
2022/06/19 09:48:33;;;;;;;10.15;1.95;;;;;;;16.95;71.13;100871.59;4843863;29;20476;-81
2022/06/19 09:51:07;;;;;;;9.07;1.90;;;;;;;17.24;69.53;100869.75;4819174;29;20057;-80
2022/06/19 09:53:56;;;;;;;10.90;2.05;;;;;;;17.18;68.63;100843.53;4844884;29;20052;-82
2022/06/19 09:56:31;;;;;;;11.02;2.00;;;;;;;17.18;69.33;100870.72;4790633;29;20038;-81
2022/06/19 09:59:06;;;;;;;10.00;2.17;;;;;;;17.25;68.94;100871.41;4818861;29;20034;-81
2022/06/19 10:01:31;;;;;;;9.75;1.92;;;;;;;17.01;69.98;100852.44;4814684;29;20081;-81
2022/06/19 10:04:04;;;;;;;6.45;1.90;;;;;;;16.54;71.98;100832.66;4830462;29;20437;-80
2022/06/19 10:07:10;;;;;;;11.30;2.28;;;;;;;16.56;73.23;100880.28;4824248;29;20034;-82
2022/06/19 10:09:43;;;;;;;12.10;2.03;;;;;;;16.35;75.23;100834.69;4792171;29;20050;-79
2022/06/19 10:12:14;;;;;;;12.88;2.38;;;;;;;16.51;77.13;100868.44;4833101;29;20054;-80
2022/06/19 10:14:47;;;;;;;9.90;2.53;;;;;;;16.40;79.49;100879.09;4830292;29;20030;-79
2022/06/19 10:17:45;;;;;;;11.68;2.17;;;;;;;16.58;79.79;100871.88;4829104;29;20094;-78
2022/06/19 10:20:20;;;;;;;10.98;2.15;;;;;;;16.45;77.28;100852.03;4831448;29;20014;-78
2022/06/19 10:23:21;;;;;;;9.52;2.05;;;;;;;16.67;76.71;100852.25;4814625;29;20442;-80
2022/06/19 10:26:19;;;;;;;10.55;2.25;;;;;;;16.67;78.17;100854.97;4847876;29;20038;-80
2022/06/19 10:28:47;;;;;;;9.63;1.90;;;;;;;16.81;78.35;100866.44;4828748;29;20057;-79
2022/06/19 10:31:33;;;;;;;11.57;2.10;;;;;;;16.78;76.87;100847.88;4811186;29;20030;-80
2022/06/19 10:34:06;;;;;;;8.63;2.13;;;;;;;16.50;79.24;100856.75;4824524;29;20067;-79
2022/06/19 10:36:39;;;;;;;14.60;2.53;;;;;;;16.53;75.57;100859.00;4830135;29;20031;-80
2022/06/19 10:39:10;;;;;;;7.95;1.48;;;;;;;16.73;73.95;100864.06;4827591;29;20031;-79
2022/06/19 10:42:06;;;;;;;11.48;1.95;;;;;;;17.04;73.37;100859.31;4816840;29;20061;-79
2022/06/19 10:44:59;;;;;;;12.07;2.00;;;;;;;16.66;76.11;100857.94;4811135;29;20407;-80
2022/06/19 10:47:47;;;;;;;10.55;2.10;;;;;;;16.73;72.52;100864.06;4815712;29;20038;-80
2022/06/19 10:50:53;;;;;;;7.82;1.75;;;;;;;16.95;69.75;100867.00;4830013;29;20116;-80
2022/06/19 10:53:46;;;;;;;14.02;1.88;;;;;;;16.98;68.98;100876.56;4809815;29;20346;-79
2022/06/19 10:56:17;;;;;;;14.32;2.00;;;;;;;16.61;72.29;100861.34;4822694;29;20457;-80
2022/06/19 10:58:45;;;;;;;9.38;1.95;;;;;;;16.57;75.47;100870.22;4830172;29;20044;-79
2022/06/19 11:04:06;;;;;;;9.10;1.80;;;;;;;16.32;75.34;100856.88;4799795;29;20038;-80
2022/06/19 11:04:07;;;;;;;10.30;1.90;;;;;;;16.28;75.59;100851.09;4831489;29;20067;-80
2022/06/19 11:06:57;;;;;;;8.93;1.77;;;;;;;16.72;73.42;100862.44;4829491;29;20054;-80
2022/06/19 11:09:54;;;;;;;10.68;2.05;;;;;;;16.59;74.58;100855.34;4843657;29;20038;-80
2022/06/19 11:12:35;;;;;;;8.70;1.85;;;;;;;16.71;74.23;100859.94;4831793;29;20114;-80
2022/06/19 11:15:21;;;;;;;9.45;2.53;;;;;;;16.77;72.86;100848.97;4825505;29;20122;-79
2022/06/19 11:17:46;;;;;;;9.95;2.05;;;;;;;16.96;72.73;100848.81;4811902;29;20353;-79
2022/06/19 11:20:32;;;;;;;10.98;2.20;;;;;;;16.86;73.29;100842.09;4795962;29;20106;-79
2022/06/19 11:23:02;;;;;;;12.50;2.45;;;;;;;17.00;74.56;100833.66;4835001;29;20053;-79
2022/06/19 11:25:32;;;;;;;8.27;2.13;;;;;;;16.91;72.74;100835.94;4837109;29;20045;-79
2022/06/19 11:28:00;;;;;;;13.40;2.05;;;;;;;16.95;75.23;100817.25;4839029;29;20537;-79
2022/06/19 11:30:36;;;;;;;15.40;3.03;;;;;;;17.33;74.56;100844.66;4835905;29;20414;-79
2022/06/19 11:33:08;;;;;;;7.00;1.58;;;;;;;17.32;74.82;100825.88;4817542;29;20038;-78
2022/06/19 11:36:01;;;;;;;9.65;2.22;;;;;;;17.29;72.15;100838.06;4816938;29;20049;-79
2022/06/19 11:38:38;;;;;;;12.88;2.25;;;;;;;17.44;74.34;100839.41;4835958;29;20389;-80
2022/06/19 11:41:34;;;;;;;11.30;2.10;;;;;;;17.32;74.64;100813.09;4828080;29;20109;-79
2022/06/19 11:44:02;;;;;;;8.45;1.83;;;;;;;17.35;72.89;100828.94;4826893;29;20103;-79